createdAt,value
2022-08-19T00:03:12.473Z,92.30
2022-08-19T00:05:39.691Z,92.30
2022-08-19T00:12:50.760Z,92.30
2022-08-19T00:15:20.320Z,92.20
2022-08-19T00:17:47.376Z,92.20
2022-08-19T00:21:10.832Z,92.10
2022-08-19T00:31:08.070Z,92.30
2022-08-19T00:33:35.805Z,92.40
2022-08-19T00:36:07.172Z,92.40
2022-08-19T00:38:37.835Z,92.40
2022-08-19T00:41:06.940Z,92.50
2022-08-19T00:43:34.610Z,92.50
2022-08-19T00:46:05.774Z,92.50
2022-08-19T00:48:34.712Z,92.60
2022-08-19T00:56:04.793Z,92.70
2022-08-19T00:58:34.438Z,92.70
2022-08-19T01:01:02.081Z,92.80
2022-08-19T01:04:25.268Z,92.70
2022-08-19T01:06:52.169Z,92.40
2022-08-19T01:10:15.712Z,92.30
2022-08-19T01:12:42.692Z,92.50
2022-08-19T01:19:07.947Z,92.60
2022-08-19T01:21:47.283Z,92.70
2022-08-19T01:25:14.941Z,92.90
2022-08-19T01:27:44.862Z,93.10
2022-08-19T01:30:23.490Z,93.40
2022-08-19T01:37:45.981Z,93.70
2022-08-19T01:40:13.502Z,93.90
2022-08-19T01:42:41.585Z,93.90
2022-08-19T01:49:14.040Z,94.10
2022-08-19T01:51:41.128Z,94.10
2022-08-19T01:54:09.629Z,94.10
2022-08-19T01:57:33.247Z,93.90
2022-08-19T02:00:01.173Z,94.00
2022-08-19T02:02:28.019Z,94.20
2022-08-19T02:05:51.360Z,94.30
2022-08-19T02:08:18.239Z,94.40
2022-08-19T02:10:45.406Z,94.50
2022-08-19T02:14:08.512Z,94.40
2022-08-19T02:16:36.829Z,94.50
2022-08-19T02:20:00.415Z,94.30
2022-08-19T02:22:27.381Z,94.40
2022-08-19T02:24:55.234Z,94.30
2022-08-19T02:28:19.231Z,94.30
2022-08-19T02:30:47.538Z,94.20
2022-08-19T02:33:14.895Z,94.30
2022-08-19T02:36:42.302Z,94.20
2022-08-19T02:39:10.446Z,94.20
2022-08-19T02:41:37.754Z,94.20
2022-08-19T02:44:28.883Z,94.30
2022-08-19T02:46:52.665Z,94.30
2022-08-19T02:54:23.600Z,94.60
2022-08-19T02:56:50.799Z,94.80
2022-08-19T02:59:17.650Z,94.70
2022-08-19T03:02:46.390Z,94.70
2022-08-19T03:05:13.971Z,95.00
2022-08-19T03:07:40.790Z,95.10
2022-08-19T03:11:04.087Z,95.20
2022-08-19T03:13:31.219Z,95.60
2022-08-19T03:16:54.765Z,95.60
2022-08-19T03:19:22.475Z,95.60
2022-08-19T03:25:45.736Z,95.80
2022-08-19T03:28:13.820Z,96.00
2022-08-19T03:31:43.632Z,96.00
2022-08-19T03:34:18.712Z,96.10
2022-08-19T03:36:47.163Z,96.40
2022-08-19T03:43:32.052Z,96.70
2022-08-19T03:46:08.973Z,97.00
2022-08-19T03:53:37.440Z,97.30
2022-08-19T03:56:04.676Z,97.50
2022-08-19T03:58:31.783Z,97.60
2022-08-19T04:01:55.626Z,97.80
2022-08-19T04:04:24.669Z,98.00
2022-08-19T04:06:52.402Z,98.20
2022-08-19T04:10:15.941Z,98.40
2022-08-19T04:12:42.859Z,98.60
2022-08-19T04:15:10.206Z,98.50
2022-08-19T04:18:36.337Z,98.70
2022-08-19T04:21:03.952Z,98.80
2022-08-19T04:24:27.094Z,98.80
2022-08-19T04:26:54.120Z,98.80
2022-08-19T04:29:26.014Z,98.90
2022-08-19T04:32:50.010Z,99.00
2022-08-19T04:35:19.399Z,99.10
2022-08-19T04:37:48.966Z,99.20
2022-08-19T04:41:12.621Z,99.30
2022-08-19T04:43:40.246Z,99.50
2022-08-19T04:46:09.912Z,99.60
2022-08-19T04:49:33.379Z,99.60
2022-08-19T04:52:00.327Z,99.50
2022-08-19T04:54:37.506Z,99.50
2022-08-19T04:58:02.567Z,99.30
2022-08-19T05:00:29.560Z,99.30
2022-08-19T05:02:56.406Z,99.20
2022-08-19T05:06:19.696Z,99.00
2022-08-19T05:08:46.868Z,98.90
2022-08-19T05:12:10.768Z,98.90
2022-08-19T05:14:37.567Z,98.90
2022-08-19T05:17:26.157Z,98.80
2022-08-19T05:21:05.999Z,98.70
2022-08-19T05:23:32.872Z,98.70
2022-08-19T05:25:59.603Z,98.30
2022-08-19T05:29:22.931Z,98.20
2022-08-19T05:31:50.402Z,98.20
2022-08-19T05:34:20.542Z,97.90
2022-08-19T05:37:43.632Z,98.10
2022-08-19T05:40:11.391Z,98.00
2022-08-19T05:42:38.717Z,98.10
2022-08-19T05:50:09.239Z,97.40
2022-08-19T05:52:39.356Z,97.50
2022-08-19T06:00:09.419Z,97.20
2022-08-19T06:02:36.693Z,96.90
2022-08-19T06:05:10.099Z,97.10
2022-08-19T06:12:40.056Z,96.80
2022-08-19T06:15:14.371Z,96.60
2022-08-19T06:17:42.923Z,96.40
2022-08-19T06:24:47.691Z,96.50
2022-08-19T06:27:14.751Z,96.40
2022-08-19T06:29:41.838Z,96.80
2022-08-19T06:33:05.606Z,96.90
2022-08-19T06:35:32.602Z,97.20
2022-08-19T06:38:00.362Z,97.10
2022-08-19T06:41:23.946Z,97.10
2022-08-19T06:43:52.548Z,97.00
2022-08-19T06:46:21.641Z,97.00
2022-08-19T06:49:45.197Z,96.90
2022-08-19T06:52:16.970Z,96.90
2022-08-19T06:54:56.007Z,96.80
2022-08-19T06:58:20.218Z,96.50
2022-08-19T07:00:46.967Z,96.50
2022-08-19T07:03:13.953Z,96.50
2022-08-19T07:06:43.168Z,96.50
2022-08-19T07:09:14.633Z,96.30
2022-08-19T07:12:42.137Z,96.00
2022-08-19T07:15:10.875Z,95.80
2022-08-19T07:18:16.354Z,95.20
2022-08-19T07:20:44.050Z,94.90
2022-08-19T07:23:16.160Z,94.60
2022-08-19T07:26:40.090Z,94.60
2022-08-19T07:29:10.485Z,94.50
2022-08-19T07:31:38.452Z,94.10
2022-08-19T07:35:02.217Z,93.60
2022-08-19T07:37:33.183Z,93.50
2022-08-19T07:44:27.310Z,93.10
2022-08-19T07:46:57.044Z,92.50
2022-08-19T07:54:20.359Z,92.20
2022-08-19T07:56:47.470Z,92.20
2022-08-19T07:59:14.491Z,91.80
2022-08-19T08:01:41.980Z,91.70
2022-08-19T08:04:28.094Z,91.40
2022-08-19T08:07:51.432Z,91.10
2022-08-19T08:10:21.179Z,91.10
2022-08-19T08:17:49.802Z,90.80
2022-08-19T08:20:19.777Z,90.60
2022-08-19T08:27:43.701Z,90.20
2022-08-19T08:30:17.263Z,89.20
2022-08-19T08:32:45.817Z,88.30
2022-08-19T08:40:13.181Z,87.60
2022-08-19T08:42:48.340Z,88.30
2022-08-19T08:45:18.892Z,88.40
2022-08-19T08:47:50.973Z,88.30
2022-08-19T08:50:36.653Z,86.80
2022-08-19T08:53:06.520Z,85.90
2022-08-19T08:55:36.848Z,85.20
2022-08-19T08:58:28.763Z,83.20
2022-08-19T09:00:55.750Z,82.60
2022-08-19T09:03:31.413Z,81.70
2022-08-19T09:06:04.416Z,80.50
2022-08-19T09:08:48.506Z,79.80
2022-08-19T09:11:44.768Z,80.00
2022-08-19T09:14:52.325Z,78.70
2022-08-19T09:17:29.244Z,78.80
2022-08-19T09:20:09.780Z,78.40
2022-08-19T09:22:38.691Z,79.20
2022-08-19T09:26:02.256Z,78.20
2022-08-19T09:28:30.274Z,77.20
2022-08-19T09:30:59.308Z,75.90
2022-08-19T09:33:26.205Z,74.60
2022-08-19T09:36:08.675Z,73.40
2022-08-19T09:38:37.352Z,72.10
2022-08-19T09:41:20.071Z,72.00
2022-08-19T09:43:53.122Z,71.20
2022-08-19T09:46:22.096Z,69.90
2022-08-19T09:48:52.298Z,70.30
2022-08-19T09:51:22.522Z,70.60
2022-08-19T09:53:51.830Z,70.70
2022-08-19T09:56:21.345Z,70.90
2022-08-19T09:58:48.802Z,70.90
2022-08-19T10:01:24.359Z,70.20
2022-08-19T10:03:55.124Z,70.10
2022-08-19T10:06:38.166Z,67.30
2022-08-19T10:09:12.015Z,67.90
2022-08-19T10:11:49.876Z,68.20
2022-08-19T10:14:23.586Z,67.40
2022-08-19T10:16:51.650Z,66.60
2022-08-19T10:19:25.558Z,66.60
2022-08-19T10:21:55.724Z,66.80
2022-08-19T10:24:28.648Z,65.80
2022-08-19T10:26:58.830Z,66.40
2022-08-19T10:29:32.492Z,66.20
2022-08-19T10:32:05.614Z,65.10
2022-08-19T10:34:38.502Z,65.10
2022-08-19T10:37:28.933Z,64.60
2022-08-19T10:39:58.727Z,62.70
2022-08-19T10:42:25.828Z,63.80
2022-08-19T10:44:52.870Z,63.30
2022-08-19T10:47:25.649Z,63.30
2022-08-19T10:50:13.744Z,62.30
2022-08-19T10:52:49.220Z,63.00
2022-08-19T10:55:58.298Z,62.60
2022-08-19T10:58:27.034Z,63.10
2022-08-19T11:00:56.411Z,62.20
2022-08-19T11:03:24.901Z,60.50
2022-08-19T11:06:03.150Z,62.00
2022-08-19T11:08:31.786Z,62.30
2022-08-19T11:11:01.978Z,61.50
2022-08-19T11:13:30.219Z,61.40
2022-08-19T11:16:06.540Z,60.90
2022-08-19T11:18:38.770Z,61.10
2022-08-19T11:21:12.046Z,59.50
2022-08-19T11:23:39.244Z,60.40
2022-08-19T11:27:02.339Z,61.20
2022-08-19T11:29:30.145Z,60.20
2022-08-19T11:31:56.993Z,59.90
2022-08-19T11:34:28.551Z,58.80
2022-08-19T11:36:59.519Z,59.30
2022-08-19T11:39:28.585Z,58.40
2022-08-19T11:41:55.953Z,59.20
2022-08-19T11:44:23.071Z,59.00
2022-08-19T11:46:49.975Z,59.80
2022-08-19T11:49:19.718Z,59.40
2022-08-19T11:51:47.139Z,58.70
2022-08-19T11:54:17.320Z,59.10
2022-08-19T11:56:47.477Z,58.50
2022-08-19T11:59:15.004Z,58.20
2022-08-19T12:01:43.680Z,58.30
2022-08-19T12:04:11.835Z,58.80
2022-08-19T12:06:41.328Z,58.30
2022-08-19T12:09:10.443Z,58.30
2022-08-19T12:11:39.268Z,58.50
2022-08-19T12:14:07.545Z,59.30
2022-08-19T12:16:36.210Z,59.10
2022-08-19T12:19:08.807Z,58.40
2022-08-19T12:21:36.818Z,58.30
2022-08-19T12:24:05.736Z,58.80
2022-08-19T12:27:40.054Z,58.30
2022-08-19T12:30:10.864Z,58.20
2022-08-19T12:32:38.370Z,57.80
2022-08-19T12:35:07.342Z,58.00
2022-08-19T12:37:34.502Z,58.50
2022-08-19T12:40:01.889Z,58.50
2022-08-19T12:42:28.791Z,58.30
2022-08-19T12:44:55.849Z,58.70
2022-08-19T12:47:23.425Z,58.10
2022-08-19T12:49:53.238Z,57.40
2022-08-19T12:52:28.212Z,58.90
2022-08-19T12:54:57.042Z,58.40
2022-08-19T12:57:32.520Z,58.00
2022-08-19T13:00:05.037Z,57.90
2022-08-19T13:02:38.520Z,58.20
2022-08-19T13:05:09.365Z,57.50
2022-08-19T13:07:38.138Z,56.20
2022-08-19T13:10:06.704Z,56.00
2022-08-19T13:12:33.562Z,54.60
2022-08-19T13:15:00.384Z,54.50
2022-08-19T13:17:28.079Z,55.10
2022-08-19T13:19:55.047Z,55.30
2022-08-19T13:22:22.072Z,55.40
2022-08-19T13:24:49.595Z,55.80
2022-08-19T13:28:13.264Z,55.80
2022-08-19T13:31:06.054Z,55.50
2022-08-19T13:33:34.663Z,55.50
2022-08-19T13:36:02.680Z,55.10
2022-08-19T13:38:31.439Z,53.80
2022-08-19T13:41:10.971Z,53.60
2022-08-19T13:43:39.059Z,54.10
2022-08-19T13:46:11.318Z,53.00
2022-08-19T13:48:38.170Z,52.60
2022-08-19T13:51:06.285Z,54.40
2022-08-19T13:53:33.632Z,54.10
2022-08-19T13:56:00.486Z,53.40
2022-08-19T13:58:27.304Z,53.00
2022-08-19T14:00:54.225Z,52.40
2022-08-19T14:03:21.192Z,50.90
2022-08-19T14:05:48.154Z,49.50
2022-08-19T14:08:15.142Z,50.10
2022-08-19T14:10:43.660Z,48.60
2022-08-19T14:13:10.892Z,49.20
2022-08-19T14:15:39.042Z,51.00
2022-08-19T14:18:05.900Z,50.80
2022-08-19T14:20:35.936Z,51.20
2022-08-19T14:23:04.240Z,51.10
2022-08-19T14:25:32.188Z,51.00
2022-08-19T14:27:59.977Z,51.00
2022-08-19T14:30:33.370Z,50.90
2022-08-19T14:33:01.887Z,49.80
2022-08-19T14:36:25.238Z,52.00
2022-08-19T14:38:52.136Z,50.70
2022-08-19T14:41:24.270Z,50.80
2022-08-19T14:43:53.142Z,51.30
2022-08-19T14:46:22.429Z,50.50
2022-08-19T14:48:50.749Z,50.60
2022-08-19T14:51:21.580Z,51.00
2022-08-19T14:53:51.693Z,50.70
2022-08-19T14:56:22.393Z,51.10
2022-08-19T14:58:52.618Z,51.00
2022-08-19T15:01:21.586Z,50.80
2022-08-19T15:03:50.179Z,50.70
2022-08-19T15:06:17.197Z,50.90
2022-08-19T15:08:45.770Z,50.90
2022-08-19T15:11:16.710Z,51.00
2022-08-19T15:13:45.417Z,50.50
2022-08-19T15:16:17.909Z,50.70
2022-08-19T15:18:46.832Z,50.80
2022-08-19T15:21:17.475Z,51.50
2022-08-19T15:23:54.770Z,50.30
2022-08-19T15:26:22.268Z,51.60
2022-08-19T15:28:49.269Z,51.60
2022-08-19T15:31:25.296Z,51.00
2022-08-19T15:33:58.945Z,51.30
2022-08-19T15:37:22.405Z,50.20
2022-08-19T15:39:49.211Z,50.20
2022-08-19T15:42:16.642Z,51.40
2022-08-19T15:45:01.512Z,51.00
2022-08-19T15:47:34.634Z,51.00
2022-08-19T15:50:23.748Z,51.10
2022-08-19T15:52:54.017Z,51.30
2022-08-19T15:55:33.426Z,51.30
2022-08-19T15:58:29.939Z,51.60
2022-08-19T16:01:26.859Z,51.80
2022-08-19T16:04:16.105Z,51.80
2022-08-19T16:06:48.833Z,51.70
2022-08-19T16:09:17.062Z,51.20
2022-08-19T16:11:46.368Z,50.80
2022-08-19T16:14:18.613Z,51.40
2022-08-19T16:16:47.625Z,51.80
2022-08-19T16:19:16.963Z,51.70
2022-08-19T16:21:46.223Z,51.30
2022-08-19T16:24:16.019Z,51.50
2022-08-19T16:26:44.301Z,52.10
2022-08-19T16:29:13.035Z,51.90
2022-08-19T16:31:41.981Z,52.50
2022-08-19T16:34:08.891Z,51.80
2022-08-19T16:36:36.083Z,51.90
2022-08-19T16:44:00.892Z,52.10
2022-08-19T16:46:27.841Z,52.70
2022-08-19T16:48:54.843Z,52.60
2022-08-19T16:51:23.010Z,52.50
2022-08-19T16:53:52.616Z,52.80
2022-08-19T16:56:20.459Z,53.00
2022-08-19T16:58:48.669Z,52.80
2022-08-19T17:01:15.532Z,52.50
2022-08-19T17:03:42.412Z,53.30
2022-08-19T17:06:19.012Z,53.00
2022-08-19T17:08:49.869Z,52.20
2022-08-19T17:11:19.139Z,53.30
2022-08-19T17:13:47.775Z,52.30
2022-08-19T17:16:25.116Z,53.10
2022-08-19T17:18:54.549Z,53.10
2022-08-19T17:21:29.124Z,53.10
2022-08-19T17:23:57.151Z,53.00
2022-08-19T17:26:25.712Z,52.80
2022-08-19T17:28:55.579Z,53.10
2022-08-19T17:31:28.841Z,52.90
2022-08-19T17:34:03.965Z,53.00
2022-08-19T17:36:34.222Z,52.60
2022-08-19T17:39:58.243Z,52.80
2022-08-19T17:42:36.090Z,52.70
2022-08-19T17:45:07.673Z,53.20
2022-08-19T17:47:36.531Z,53.10
2022-08-19T17:50:07.098Z,53.80
2022-08-19T17:52:34.515Z,53.00
2022-08-19T17:55:02.015Z,53.30
2022-08-19T17:57:28.805Z,54.20
2022-08-19T17:59:55.757Z,54.20
2022-08-19T18:02:24.837Z,53.50
2022-08-19T18:04:52.203Z,53.90
2022-08-19T18:07:22.178Z,54.20
2022-08-19T18:09:52.116Z,54.90
2022-08-19T18:12:24.723Z,54.50
2022-08-19T18:14:51.627Z,55.40
2022-08-19T18:17:19.438Z,55.30
2022-08-19T18:19:47.824Z,55.30
2022-08-19T18:22:27.093Z,55.40
2022-08-19T18:24:55.271Z,55.60
2022-08-19T18:27:22.389Z,56.10
2022-08-19T18:29:49.459Z,56.20
2022-08-19T18:32:23.101Z,56.30
2022-08-19T18:34:51.754Z,56.70
2022-08-19T18:37:19.125Z,56.50
2022-08-19T18:44:43.102Z,57.70
2022-08-19T18:47:28.488Z,57.80
2022-08-19T18:49:55.456Z,56.90
2022-08-19T18:52:26.954Z,58.10
2022-08-19T18:54:53.981Z,58.00
2022-08-19T18:57:24.808Z,57.40
2022-08-19T18:59:56.631Z,58.00
2022-08-19T19:02:24.349Z,57.40
2022-08-19T19:04:51.443Z,58.20
2022-08-19T19:07:18.630Z,58.60
2022-08-19T19:09:50.488Z,58.00
2022-08-19T19:12:18.206Z,58.20
2022-08-19T19:14:49.507Z,57.90
2022-08-19T19:17:17.569Z,59.10
2022-08-19T19:19:44.504Z,58.40
2022-08-19T19:22:14.449Z,59.50
2022-08-19T19:24:45.212Z,58.70
2022-08-19T19:27:13.913Z,59.50
2022-08-19T19:29:41.996Z,58.50
2022-08-19T19:32:19.486Z,59.00
2022-08-19T19:34:46.771Z,59.00
2022-08-19T19:37:14.045Z,59.50
2022-08-19T19:40:37.574Z,59.50
2022-08-19T19:43:06.214Z,59.70
2022-08-19T19:45:33.519Z,59.50
2022-08-19T19:48:00.853Z,59.40
2022-08-19T19:50:31.182Z,59.30
2022-08-19T19:52:58.630Z,59.70
2022-08-19T19:55:26.859Z,59.60
2022-08-19T19:57:54.553Z,59.80
2022-08-19T20:00:22.314Z,59.00
2022-08-19T20:02:50.814Z,60.00
2022-08-19T20:05:20.776Z,59.90
2022-08-19T20:08:06.334Z,60.00
2022-08-19T20:10:33.599Z,59.20
2022-08-19T20:13:02.836Z,59.10
2022-08-19T20:15:32.112Z,59.30
2022-08-19T20:18:00.355Z,60.40
2022-08-19T20:20:28.007Z,59.50
2022-08-19T20:22:55.270Z,59.80
2022-08-19T20:25:22.497Z,59.70
2022-08-19T20:27:49.974Z,60.90
2022-08-19T20:30:20.613Z,60.00
2022-08-19T20:32:48.981Z,60.70
2022-08-19T20:35:18.919Z,60.40
2022-08-19T20:37:46.241Z,60.40
2022-08-19T20:45:32.396Z,61.30
2022-08-19T20:47:56.845Z,60.70
2022-08-19T20:50:23.818Z,60.90
2022-08-19T20:52:52.487Z,61.40
2022-08-19T20:55:22.088Z,60.90
2022-08-19T20:57:49.053Z,60.90
2022-08-19T21:00:16.666Z,61.30
2022-08-19T21:02:43.664Z,61.50
2022-08-19T21:05:11.243Z,61.80
2022-08-19T21:07:39.554Z,61.90
2022-08-19T21:10:07.175Z,62.20
2022-08-19T21:12:34.156Z,62.50
2022-08-19T21:15:01.902Z,62.50
2022-08-19T21:17:28.819Z,62.50
2022-08-19T21:19:55.683Z,62.60
2022-08-19T21:22:22.614Z,62.60
2022-08-19T21:24:49.600Z,62.90
2022-08-19T21:27:16.411Z,62.80
2022-08-19T21:29:43.327Z,63.20
2022-08-19T21:32:14.292Z,63.20
2022-08-19T21:34:46.111Z,63.70
2022-08-19T21:37:19.938Z,64.00
2022-08-19T21:40:48.599Z,64.40
2022-08-19T21:43:16.287Z,64.80
2022-08-19T21:45:43.698Z,65.20
2022-08-19T21:48:12.583Z,65.50
2022-08-19T21:50:39.403Z,66.10
2022-08-19T21:53:06.444Z,66.00
2022-08-19T21:55:33.583Z,66.40
2022-08-19T21:58:01.721Z,66.50
2022-08-19T22:00:32.230Z,66.80
2022-08-19T22:02:59.254Z,67.40
2022-08-19T22:05:26.216Z,67.70
2022-08-19T22:07:58.067Z,67.40
2022-08-19T22:10:32.433Z,68.00
2022-08-19T22:12:59.665Z,68.00
2022-08-19T22:15:29.147Z,67.60
2022-08-19T22:17:58.481Z,68.60
2022-08-19T22:20:28.172Z,68.50
2022-08-19T22:22:58.451Z,68.00
2022-08-19T22:25:31.976Z,69.30
2022-08-19T22:28:01.599Z,69.70
2022-08-19T22:30:33.268Z,70.60
2022-08-19T22:33:02.749Z,70.80
2022-08-19T22:35:32.932Z,70.90
2022-08-19T22:38:00.493Z,71.10
2022-08-19T22:41:24.179Z,70.80
2022-08-19T22:43:51.141Z,71.20
2022-08-19T22:46:17.958Z,72.00
2022-08-19T22:48:46.142Z,72.00
2022-08-19T22:51:32.432Z,71.50
2022-08-19T22:53:59.795Z,70.90
2022-08-19T22:56:26.881Z,70.80
2022-08-19T22:58:54.064Z,70.60
2022-08-19T23:01:23.819Z,70.80
2022-08-19T23:03:56.436Z,71.80
2022-08-19T23:06:23.245Z,73.40
2022-08-19T23:08:56.678Z,73.30
2022-08-19T23:11:23.650Z,74.20
2022-08-19T23:13:50.507Z,73.60
2022-08-19T23:16:17.517Z,74.30
2022-08-19T23:18:45.526Z,75.00
2022-08-19T23:21:12.347Z,75.80
2022-08-19T23:23:39.348Z,74.80
2022-08-19T23:26:06.590Z,74.00
2022-08-19T23:28:57.109Z,73.90
2022-08-19T23:31:26.538Z,74.20
2022-08-19T23:33:53.437Z,73.90
2022-08-19T23:36:21.576Z,73.40
2022-08-19T23:38:50.768Z,74.90
2022-08-19T23:49:37.989Z,74.40
2022-08-19T23:52:05.100Z,75.20
2022-08-19T23:54:42.889Z,75.90
2022-08-19T23:57:13.259Z,75.20
2022-08-19T23:59:42.454Z,74.70
